sensor_id;sensor_type;location;lat;lon;timestamp;temperature;humidity
4840;DHT22;2434;48.486;7.964;2023-02-28T00:01:26;1.40;34.70
4840;DHT22;2434;48.486;7.964;2023-02-28T00:03:55;0.50;35.50
4840;DHT22;2434;48.486;7.964;2023-02-28T00:06:23;0.20;36.30
4840;DHT22;2434;48.486;7.964;2023-02-28T00:08:53;0.30;37.30
4840;DHT22;2434;48.486;7.964;2023-02-28T00:11:21;0.20;37.60
4840;DHT22;2434;48.486;7.964;2023-02-28T00:13:50;0.00;38.00
4840;DHT22;2434;48.486;7.964;2023-02-28T00:16:20;0.10;38.30
4840;DHT22;2434;48.486;7.964;2023-02-28T00:18:49;0.20;37.80
4840;DHT22;2434;48.486;7.964;2023-02-28T00:21:19;0.20;38.30
4840;DHT22;2434;48.486;7.964;2023-02-28T00:23:47;0.00;38.70
4840;DHT22;2434;48.486;7.964;2023-02-28T00:26:17;0.30;38.00
4840;DHT22;2434;48.486;7.964;2023-02-28T00:28:48;0.50;37.70
4840;DHT22;2434;48.486;7.964;2023-02-28T00:31:16;0.80;37.90
4840;DHT22;2434;48.486;7.964;2023-02-28T00:33:47;0.80;37.10
4840;DHT22;2434;48.486;7.964;2023-02-28T00:36:16;0.60;38.10
4840;DHT22;2434;48.486;7.964;2023-02-28T00:38:44;0.50;37.90
4840;DHT22;2434;48.486;7.964;2023-02-28T00:41:12;0.60;37.90
4840;DHT22;2434;48.486;7.964;2023-02-28T00:43:42;0.60;38.10
4840;DHT22;2434;48.486;7.964;2023-02-28T00:46:10;0.70;38.40
4840;DHT22;2434;48.486;7.964;2023-02-28T00:48:39;0.50;39.20
4840;DHT22;2434;48.486;7.964;2023-02-28T00:51:07;0.00;41.20
4840;DHT22;2434;48.486;7.964;2023-02-28T00:53:36;-0.30;42.40
4840;DHT22;2434;48.486;7.964;2023-02-28T00:56:04;-0.30;43.10
4840;DHT22;2434;48.486;7.964;2023-02-28T00:58:33;-0.50;43.50
4840;DHT22;2434;48.486;7.964;2023-02-28T01:01:02;-0.10;42.60
4840;DHT22;2434;48.486;7.964;2023-02-28T01:03:31;0.20;41.70
4840;DHT22;2434;48.486;7.964;2023-02-28T01:05:59;0.40;40.60
4840;DHT22;2434;48.486;7.964;2023-02-28T01:08:27;0.40;40.70
4840;DHT22;2434;48.486;7.964;2023-02-28T01:10:56;0.70;40.10
4840;DHT22;2434;48.486;7.964;2023-02-28T01:13:24;0.80;39.50
4840;DHT22;2434;48.486;7.964;2023-02-28T01:15:55;0.40;40.90
4840;DHT22;2434;48.486;7.964;2023-02-28T01:18:25;0.40;41.00
4840;DHT22;2434;48.486;7.964;2023-02-28T01:20:53;0.40;41.30
4840;DHT22;2434;48.486;7.964;2023-02-28T01:23:22;0.50;41.30
4840;DHT22;2434;48.486;7.964;2023-02-28T01:25:51;0.20;42.70
4840;DHT22;2434;48.486;7.964;2023-02-28T01:28:20;0.30;43.30
4840;DHT22;2434;48.486;7.964;2023-02-28T01:30:50;0.40;42.50
4840;DHT22;2434;48.486;7.964;2023-02-28T01:33:18;0.10;42.90
4840;DHT22;2434;48.486;7.964;2023-02-28T01:35:48;0.30;42.30
4840;DHT22;2434;48.486;7.964;2023-02-28T01:38:16;0.50;42.40
4840;DHT22;2434;48.486;7.964;2023-02-28T01:40:50;0.20;44.40
4840;DHT22;2434;48.486;7.964;2023-02-28T01:43:22;0.20;44.00
4840;DHT22;2434;48.486;7.964;2023-02-28T01:45:52;0.00;43.90
4840;DHT22;2434;48.486;7.964;2023-02-28T01:48:25;0.20;43.90
4840;DHT22;2434;48.486;7.964;2023-02-28T01:50:59;0.30;44.30
4840;DHT22;2434;48.486;7.964;2023-02-28T01:53:32;0.40;43.80
4840;DHT22;2434;48.486;7.964;2023-02-28T01:56:04;0.40;43.60
4840;DHT22;2434;48.486;7.964;2023-02-28T01:58:33;0.30;43.90
4840;DHT22;2434;48.486;7.964;2023-02-28T02:01:02;0.30;43.80
4840;DHT22;2434;48.486;7.964;2023-02-28T02:03:32;0.50;43.80
4840;DHT22;2434;48.486;7.964;2023-02-28T02:06:04;0.40;43.90
4840;DHT22;2434;48.486;7.964;2023-02-28T02:08:34;0.50;43.80
4840;DHT22;2434;48.486;7.964;2023-02-28T02:11:03;0.30;44.40
4840;DHT22;2434;48.486;7.964;2023-02-28T02:13:45;0.30;44.60
4840;DHT22;2434;48.486;7.964;2023-02-28T02:16:30;0.40;44.90
4840;DHT22;2434;48.486;7.964;2023-02-28T02:19:16;0.30;46.00
4840;DHT22;2434;48.486;7.964;2023-02-28T02:22:02;0.50;45.50
4840;DHT22;2434;48.486;7.964;2023-02-28T02:25:05;0.50;45.20
4840;DHT22;2434;48.486;7.964;2023-02-28T02:27:58;0.40;45.60
4840;DHT22;2434;48.486;7.964;2023-02-28T02:36:24;0.60;45.70
4840;DHT22;2434;48.486;7.964;2023-02-28T02:38:59;0.60;45.20
4840;DHT22;2434;48.486;7.964;2023-02-28T02:41:34;0.60;45.40
4840;DHT22;2434;48.486;7.964;2023-02-28T02:44:10;0.30;46.20
4840;DHT22;2434;48.486;7.964;2023-02-28T02:46:41;0.40;46.40
4840;DHT22;2434;48.486;7.964;2023-02-28T02:49:15;0.40;46.00
4840;DHT22;2434;48.486;7.964;2023-02-28T02:51:47;0.60;45.70
4840;DHT22;2434;48.486;7.964;2023-02-28T02:54:19;0.60;45.80
4840;DHT22;2434;48.486;7.964;2023-02-28T02:56:49;0.70;45.20
4840;DHT22;2434;48.486;7.964;2023-02-28T02:59:20;0.70;45.50
4840;DHT22;2434;48.486;7.964;2023-02-28T03:01:53;0.60;45.10
4840;DHT22;2434;48.486;7.964;2023-02-28T03:04:24;0.80;45.30
4840;DHT22;2434;48.486;7.964;2023-02-28T03:06:56;0.70;45.20
4840;DHT22;2434;48.486;7.964;2023-02-28T03:09:25;0.40;46.00
4840;DHT22;2434;48.486;7.964;2023-02-28T03:11:55;0.40;45.80
4840;DHT22;2434;48.486;7.964;2023-02-28T03:14:36;0.60;45.40
4840;DHT22;2434;48.486;7.964;2023-02-28T03:17:24;0.60;45.70
4840;DHT22;2434;48.486;7.964;2023-02-28T03:20:07;0.50;45.60
4840;DHT22;2434;48.486;7.964;2023-02-28T03:22:51;0.10;47.30
4840;DHT22;2434;48.486;7.964;2023-02-28T03:25:32;0.10;48.80
4840;DHT22;2434;48.486;7.964;2023-02-28T03:28:05;0.10;48.50
4840;DHT22;2434;48.486;7.964;2023-02-28T03:30:40;-0.30;51.20
4840;DHT22;2434;48.486;7.964;2023-02-28T03:33:12;-0.40;50.60
4840;DHT22;2434;48.486;7.964;2023-02-28T03:35:43;-0.10;49.80
4840;DHT22;2434;48.486;7.964;2023-02-28T03:38:18;-0.10;49.70
4840;DHT22;2434;48.486;7.964;2023-02-28T03:40:50;0.10;48.60
4840;DHT22;2434;48.486;7.964;2023-02-28T03:43:27;0.20;48.30
4840;DHT22;2434;48.486;7.964;2023-02-28T03:45:58;0.40;47.30
4840;DHT22;2434;48.486;7.964;2023-02-28T03:48:33;0.50;46.90
4840;DHT22;2434;48.486;7.964;2023-02-28T03:51:07;0.40;47.00
4840;DHT22;2434;48.486;7.964;2023-02-28T03:53:41;0.50;46.80
4840;DHT22;2434;48.486;7.964;2023-02-28T03:56:14;0.50;46.60
4840;DHT22;2434;48.486;7.964;2023-02-28T03:58:48;0.40;47.10
4840;DHT22;2434;48.486;7.964;2023-02-28T04:01:21;0.50;46.60
4840;DHT22;2434;48.486;7.964;2023-02-28T04:03:50;0.40;47.40
4840;DHT22;2434;48.486;7.964;2023-02-28T04:06:20;0.50;47.10
4840;DHT22;2434;48.486;7.964;2023-02-28T04:08:50;0.40;47.30
4840;DHT22;2434;48.486;7.964;2023-02-28T04:11:23;0.30;48.10
4840;DHT22;2434;48.486;7.964;2023-02-28T04:13:51;0.20;48.00
4840;DHT22;2434;48.486;7.964;2023-02-28T04:16:19;0.30;48.10
4840;DHT22;2434;48.486;7.964;2023-02-28T04:19:02;0.40;48.10
4840;DHT22;2434;48.486;7.964;2023-02-28T04:21:33;0.50;46.90
4840;DHT22;2434;48.486;7.964;2023-02-28T04:24:03;0.40;47.10
4840;DHT22;2434;48.486;7.964;2023-02-28T04:26:33;0.40;47.30
4840;DHT22;2434;48.486;7.964;2023-02-28T04:29:02;0.40;47.10
4840;DHT22;2434;48.486;7.964;2023-02-28T04:31:31;0.20;47.90
4840;DHT22;2434;48.486;7.964;2023-02-28T04:33:59;0.00;49.20
4840;DHT22;2434;48.486;7.964;2023-02-28T04:36:28;0.10;50.10
4840;DHT22;2434;48.486;7.964;2023-02-28T04:38:56;0.20;48.50
4840;DHT22;2434;48.486;7.964;2023-02-28T04:41:26;0.20;48.30
4840;DHT22;2434;48.486;7.964;2023-02-28T04:43:58;0.40;47.60
4840;DHT22;2434;48.486;7.964;2023-02-28T04:46:26;0.50;47.10
4840;DHT22;2434;48.486;7.964;2023-02-28T04:48:54;0.40;47.30
4840;DHT22;2434;48.486;7.964;2023-02-28T04:51:23;-0.10;48.90
4840;DHT22;2434;48.486;7.964;2023-02-28T04:53:52;-0.10;50.20
4840;DHT22;2434;48.486;7.964;2023-02-28T04:56:21;0.10;49.40
4840;DHT22;2434;48.486;7.964;2023-02-28T04:58:50;0.20;49.30
4840;DHT22;2434;48.486;7.964;2023-02-28T05:01:23;0.30;48.30
4840;DHT22;2434;48.486;7.964;2023-02-28T05:03:53;0.30;47.90
4840;DHT22;2434;48.486;7.964;2023-02-28T05:06:23;0.30;48.50
4840;DHT22;2434;48.486;7.964;2023-02-28T05:08:52;0.40;48.10
4840;DHT22;2434;48.486;7.964;2023-02-28T05:11:22;0.40;47.90
4840;DHT22;2434;48.486;7.964;2023-02-28T05:13:52;0.50;48.00
4840;DHT22;2434;48.486;7.964;2023-02-28T05:16:21;0.30;48.30
4840;DHT22;2434;48.486;7.964;2023-02-28T05:18:50;0.40;47.80
4840;DHT22;2434;48.486;7.964;2023-02-28T05:21:29;0.40;47.70
4840;DHT22;2434;48.486;7.964;2023-02-28T05:24:02;0.50;47.10
4840;DHT22;2434;48.486;7.964;2023-02-28T05:26:31;0.40;47.40
4840;DHT22;2434;48.486;7.964;2023-02-28T05:29:03;0.50;47.80
4840;DHT22;2434;48.486;7.964;2023-02-28T05:31:32;0.30;47.60
4840;DHT22;2434;48.486;7.964;2023-02-28T05:34:00;0.20;48.10
4840;DHT22;2434;48.486;7.964;2023-02-28T05:36:30;-0.30;49.80
4840;DHT22;2434;48.486;7.964;2023-02-28T05:38:59;-0.10;50.00
4840;DHT22;2434;48.486;7.964;2023-02-28T05:41:27;0.10;49.10
4840;DHT22;2434;48.486;7.964;2023-02-28T05:43:57;0.20;48.30
4840;DHT22;2434;48.486;7.964;2023-02-28T05:46:27;0.30;48.00
4840;DHT22;2434;48.486;7.964;2023-02-28T05:48:56;0.40;47.40
4840;DHT22;2434;48.486;7.964;2023-02-28T05:51:27;0.50;47.10
4840;DHT22;2434;48.486;7.964;2023-02-28T05:53:59;0.40;47.30
4840;DHT22;2434;48.486;7.964;2023-02-28T05:56:28;0.00;49.30
4840;DHT22;2434;48.486;7.964;2023-02-28T05:58:56;0.00;49.40
4840;DHT22;2434;48.486;7.964;2023-02-28T06:01:34;0.20;49.10
4840;DHT22;2434;48.486;7.964;2023-02-28T06:04:04;0.40;49.90
4840;DHT22;2434;48.486;7.964;2023-02-28T06:06:33;0.40;48.70
4840;DHT22;2434;48.486;7.964;2023-02-28T06:09:03;0.30;48.80
4840;DHT22;2434;48.486;7.964;2023-02-28T06:11:32;0.00;50.70
4840;DHT22;2434;48.486;7.964;2023-02-28T06:14:02;0.10;50.50
4840;DHT22;2434;48.486;7.964;2023-02-28T06:16:34;0.10;50.40
4840;DHT22;2434;48.486;7.964;2023-02-28T06:19:03;0.30;50.00
4840;DHT22;2434;48.486;7.964;2023-02-28T06:21:31;0.30;49.80
4840;DHT22;2434;48.486;7.964;2023-02-28T06:24:00;0.40;49.20
4840;DHT22;2434;48.486;7.964;2023-02-28T06:26:28;0.30;49.40
4840;DHT22;2434;48.486;7.964;2023-02-28T06:28:57;0.40;49.50
4840;DHT22;2434;48.486;7.964;2023-02-28T06:31:25;0.50;49.10
4840;DHT22;2434;48.486;7.964;2023-02-28T06:33:57;0.40;49.40
4840;DHT22;2434;48.486;7.964;2023-02-28T06:36:25;0.30;50.00
4840;DHT22;2434;48.486;7.964;2023-02-28T06:38:54;0.30;50.90
4840;DHT22;2434;48.486;7.964;2023-02-28T06:41:24;0.30;50.50
4840;DHT22;2434;48.486;7.964;2023-02-28T06:43:53;0.20;53.70
4840;DHT22;2434;48.486;7.964;2023-02-28T06:46:22;0.10;52.10
4840;DHT22;2434;48.486;7.964;2023-02-28T06:48:50;0.20;52.30
4840;DHT22;2434;48.486;7.964;2023-02-28T06:51:20;0.20;51.20
4840;DHT22;2434;48.486;7.964;2023-02-28T06:53:51;0.00;52.30
4840;DHT22;2434;48.486;7.964;2023-02-28T06:56:20;0.20;51.70
4840;DHT22;2434;48.486;7.964;2023-02-28T06:58:49;0.30;51.50
4840;DHT22;2434;48.486;7.964;2023-02-28T07:01:19;0.30;51.00
4840;DHT22;2434;48.486;7.964;2023-02-28T07:03:50;0.40;50.80
4840;DHT22;2434;48.486;7.964;2023-02-28T07:06:21;0.40;50.90
4840;DHT22;2434;48.486;7.964;2023-02-28T07:08:50;0.00;53.80
4840;DHT22;2434;48.486;7.964;2023-02-28T07:11:19;0.00;53.00
4840;DHT22;2434;48.486;7.964;2023-02-28T07:13:49;0.10;53.10
4840;DHT22;2434;48.486;7.964;2023-02-28T07:16:18;0.20;52.60
4840;DHT22;2434;48.486;7.964;2023-02-28T07:18:46;0.00;54.10
4840;DHT22;2434;48.486;7.964;2023-02-28T07:21:15;-0.10;55.10
4840;DHT22;2434;48.486;7.964;2023-02-28T07:23:44;-0.10;55.20
4840;DHT22;2434;48.486;7.964;2023-02-28T07:26:15;0.00;53.90
4840;DHT22;2434;48.486;7.964;2023-02-28T07:28:46;0.00;54.70
4840;DHT22;2434;48.486;7.964;2023-02-28T07:31:15;0.10;54.30
4840;DHT22;2434;48.486;7.964;2023-02-28T07:33:43;0.10;55.20
4840;DHT22;2434;48.486;7.964;2023-02-28T07:36:14;0.10;54.20
4840;DHT22;2434;48.486;7.964;2023-02-28T07:38:48;-0.10;55.80
4840;DHT22;2434;48.486;7.964;2023-02-28T07:41:17;-0.20;56.50
4840;DHT22;2434;48.486;7.964;2023-02-28T07:43:46;-0.20;56.20
4840;DHT22;2434;48.486;7.964;2023-02-28T07:46:16;-0.30;57.10
4840;DHT22;2434;48.486;7.964;2023-02-28T07:48:45;-0.30;57.60
4840;DHT22;2434;48.486;7.964;2023-02-28T07:51:14;-0.20;56.50
4840;DHT22;2434;48.486;7.964;2023-02-28T07:53:42;-0.20;57.50
4840;DHT22;2434;48.486;7.964;2023-02-28T07:56:11;-0.30;57.80
4840;DHT22;2434;48.486;7.964;2023-02-28T07:58:40;-0.20;57.50
4840;DHT22;2434;48.486;7.964;2023-02-28T08:01:09;-0.20;58.30
4840;DHT22;2434;48.486;7.964;2023-02-28T08:03:38;-0.30;58.50
4840;DHT22;2434;48.486;7.964;2023-02-28T08:06:08;-0.30;59.00
4840;DHT22;2434;48.486;7.964;2023-02-28T08:08:36;-0.40;59.80
4840;DHT22;2434;48.486;7.964;2023-02-28T08:11:05;-0.20;58.80
4840;DHT22;2434;48.486;7.964;2023-02-28T08:13:34;-0.10;58.20
4840;DHT22;2434;48.486;7.964;2023-02-28T08:16:03;-0.10;58.10
4840;DHT22;2434;48.486;7.964;2023-02-28T08:18:32;0.00;57.90
4840;DHT22;2434;48.486;7.964;2023-02-28T08:21:06;0.10;57.10
4840;DHT22;2434;48.486;7.964;2023-02-28T08:23:34;0.10;57.00
4840;DHT22;2434;48.486;7.964;2023-02-28T08:26:02;0.10;57.30
4840;DHT22;2434;48.486;7.964;2023-02-28T08:28:31;0.20;57.00
4840;DHT22;2434;48.486;7.964;2023-02-28T08:31:01;0.20;57.00
4840;DHT22;2434;48.486;7.964;2023-02-28T08:33:34;0.10;58.10
4840;DHT22;2434;48.486;7.964;2023-02-28T08:36:03;0.20;56.80
4840;DHT22;2434;48.486;7.964;2023-02-28T08:38:31;0.10;57.30
4840;DHT22;2434;48.486;7.964;2023-02-28T08:41:00;0.10;57.10
4840;DHT22;2434;48.486;7.964;2023-02-28T08:43:29;0.10;57.60
4840;DHT22;2434;48.486;7.964;2023-02-28T08:45:57;0.20;57.40
4840;DHT22;2434;48.486;7.964;2023-02-28T08:48:29;0.00;57.90
4840;DHT22;2434;48.486;7.964;2023-02-28T08:50:57;0.00;57.70
4840;DHT22;2434;48.486;7.964;2023-02-28T08:53:33;0.20;56.90
4840;DHT22;2434;48.486;7.964;2023-02-28T08:56:04;0.20;57.60
4840;DHT22;2434;48.486;7.964;2023-02-28T08:58:33;0.20;57.00
4840;DHT22;2434;48.486;7.964;2023-02-28T09:01:08;0.20;57.50
4840;DHT22;2434;48.486;7.964;2023-02-28T09:03:39;0.30;57.00
4840;DHT22;2434;48.486;7.964;2023-02-28T09:06:09;0.20;56.80
4840;DHT22;2434;48.486;7.964;2023-02-28T09:08:39;0.30;57.20
4840;DHT22;2434;48.486;7.964;2023-02-28T09:11:08;0.30;57.10
4840;DHT22;2434;48.486;7.964;2023-02-28T09:13:38;0.30;56.80
4840;DHT22;2434;48.486;7.964;2023-02-28T09:16:07;0.30;56.20
4840;DHT22;2434;48.486;7.964;2023-02-28T09:18:36;0.30;56.60
4840;DHT22;2434;48.486;7.964;2023-02-28T09:21:08;0.30;56.50
4840;DHT22;2434;48.486;7.964;2023-02-28T09:23:36;0.30;56.80
4840;DHT22;2434;48.486;7.964;2023-02-28T09:26:06;0.20;57.90
4840;DHT22;2434;48.486;7.964;2023-02-28T09:28:34;0.30;57.50
4840;DHT22;2434;48.486;7.964;2023-02-28T09:31:03;0.30;57.40
4840;DHT22;2434;48.486;7.964;2023-02-28T09:33:31;0.50;56.20
4840;DHT22;2434;48.486;7.964;2023-02-28T09:36:02;0.40;55.80
4840;DHT22;2434;48.486;7.964;2023-02-28T09:38:33;0.30;55.50
4840;DHT22;2434;48.486;7.964;2023-02-28T09:41:03;0.50;55.20
4840;DHT22;2434;48.486;7.964;2023-02-28T09:43:36;0.50;55.10
4840;DHT22;2434;48.486;7.964;2023-02-28T09:46:11;0.50;55.40
4840;DHT22;2434;48.486;7.964;2023-02-28T09:48:45;0.50;55.40
4840;DHT22;2434;48.486;7.964;2023-02-28T09:51:28;0.50;55.20
4840;DHT22;2434;48.486;7.964;2023-02-28T09:53:59;0.50;54.60
4840;DHT22;2434;48.486;7.964;2023-02-28T09:56:33;0.60;53.80
4840;DHT22;2434;48.486;7.964;2023-02-28T09:59:11;0.50;54.20
4840;DHT22;2434;48.486;7.964;2023-02-28T10:01:50;0.50;55.00
4840;DHT22;2434;48.486;7.964;2023-02-28T10:04:35;0.50;55.30
4840;DHT22;2434;48.486;7.964;2023-02-28T10:07:15;0.60;55.00
4840;DHT22;2434;48.486;7.964;2023-02-28T10:09:53;0.60;54.50
4840;DHT22;2434;48.486;7.964;2023-02-28T10:12:22;0.70;54.50
4840;DHT22;2434;48.486;7.964;2023-02-28T10:14:52;0.70;54.40
4840;DHT22;2434;48.486;7.964;2023-02-28T10:17:26;0.60;55.00
4840;DHT22;2434;48.486;7.964;2023-02-28T10:20:00;0.70;55.20
4840;DHT22;2434;48.486;7.964;2023-02-28T10:22:38;0.80;55.10
4840;DHT22;2434;48.486;7.964;2023-02-28T10:25:18;0.80;54.60
4840;DHT22;2434;48.486;7.964;2023-02-28T10:27:46;0.70;54.60
4840;DHT22;2434;48.486;7.964;2023-02-28T10:30:15;0.70;54.80
4840;DHT22;2434;48.486;7.964;2023-02-28T10:32:49;0.70;55.00
4840;DHT22;2434;48.486;7.964;2023-02-28T10:35:21;0.70;54.70
4840;DHT22;2434;48.486;7.964;2023-02-28T10:37:53;0.80;55.10
4840;DHT22;2434;48.486;7.964;2023-02-28T10:40:30;0.80;53.70
4840;DHT22;2434;48.486;7.964;2023-02-28T10:43:01;0.90;53.90
4840;DHT22;2434;48.486;7.964;2023-02-28T10:45:31;0.80;53.70
4840;DHT22;2434;48.486;7.964;2023-02-28T10:48:02;0.90;54.80
4840;DHT22;2434;48.486;7.964;2023-02-28T10:50:38;0.90;53.30
4840;DHT22;2434;48.486;7.964;2023-02-28T10:53:25;0.90;53.50
4840;DHT22;2434;48.486;7.964;2023-02-28T10:56:00;0.90;54.00
4840;DHT22;2434;48.486;7.964;2023-02-28T10:58:31;0.90;53.50
4840;DHT22;2434;48.486;7.964;2023-02-28T11:01:00;0.90;52.70
4840;DHT22;2434;48.486;7.964;2023-02-28T11:03:33;1.00;52.90
4840;DHT22;2434;48.486;7.964;2023-02-28T11:06:07;1.10;53.40
4840;DHT22;2434;48.486;7.964;2023-02-28T11:08:44;1.10;53.40
4840;DHT22;2434;48.486;7.964;2023-02-28T11:11:14;1.10;53.10
4840;DHT22;2434;48.486;7.964;2023-02-28T11:13:46;1.10;52.60
4840;DHT22;2434;48.486;7.964;2023-02-28T11:16:15;1.10;53.10
4840;DHT22;2434;48.486;7.964;2023-02-28T11:18:48;1.10;53.00
4840;DHT22;2434;48.486;7.964;2023-02-28T11:21:21;1.10;52.80
4840;DHT22;2434;48.486;7.964;2023-02-28T11:23:53;1.20;53.10
4840;DHT22;2434;48.486;7.964;2023-02-28T11:26:39;1.20;52.70
4840;DHT22;2434;48.486;7.964;2023-02-28T11:29:18;1.20;52.50
4840;DHT22;2434;48.486;7.964;2023-02-28T11:32:05;1.30;52.00
4840;DHT22;2434;48.486;7.964;2023-02-28T11:34:36;1.20;52.70
4840;DHT22;2434;48.486;7.964;2023-02-28T11:37:09;1.30;52.80
4840;DHT22;2434;48.486;7.964;2023-02-28T11:39:38;1.30;53.00
4840;DHT22;2434;48.486;7.964;2023-02-28T11:42:30;1.40;52.50
4840;DHT22;2434;48.486;7.964;2023-02-28T11:45:15;1.40;51.50
4840;DHT22;2434;48.486;7.964;2023-02-28T11:47:48;1.50;52.00
4840;DHT22;2434;48.486;7.964;2023-02-28T11:53:17;1.50;50.80
4840;DHT22;2434;48.486;7.964;2023-02-28T11:55:52;1.60;47.10
4840;DHT22;2434;48.486;7.964;2023-02-28T11:58:40;1.70;47.90
4840;DHT22;2434;48.486;7.964;2023-02-28T12:01:38;1.80;48.00
4840;DHT22;2434;48.486;7.964;2023-02-28T12:04:25;1.90;46.50
4840;DHT22;2434;48.486;7.964;2023-02-28T12:07:02;2.00;47.20
4840;DHT22;2434;48.486;7.964;2023-02-28T12:09:41;1.90;48.50
4840;DHT22;2434;48.486;7.964;2023-02-28T12:12:21;2.00;48.40
4840;DHT22;2434;48.486;7.964;2023-02-28T12:15:23;1.90;46.70
4840;DHT22;2434;48.486;7.964;2023-02-28T12:18:08;2.10;48.80
4840;DHT22;2434;48.486;7.964;2023-02-28T12:20:42;2.10;47.10
4840;DHT22;2434;48.486;7.964;2023-02-28T12:23:26;2.20;46.90
4840;DHT22;2434;48.486;7.964;2023-02-28T12:26:05;2.30;44.30
4840;DHT22;2434;48.486;7.964;2023-02-28T12:28:40;2.40;43.90
4840;DHT22;2434;48.486;7.964;2023-02-28T12:31:16;2.30;42.80
4840;DHT22;2434;48.486;7.964;2023-02-28T12:33:50;2.40;43.50
4840;DHT22;2434;48.486;7.964;2023-02-28T12:36:20;2.50;43.50
4840;DHT22;2434;48.486;7.964;2023-02-28T12:38:55;2.60;45.10
4840;DHT22;2434;48.486;7.964;2023-02-28T12:41:29;2.70;44.10
4840;DHT22;2434;48.486;7.964;2023-02-28T12:44:03;2.90;43.60
4840;DHT22;2434;48.486;7.964;2023-02-28T12:46:37;3.00;42.90
4840;DHT22;2434;48.486;7.964;2023-02-28T12:49:09;3.10;41.50
4840;DHT22;2434;48.486;7.964;2023-02-28T12:51:39;3.10;42.30
4840;DHT22;2434;48.486;7.964;2023-02-28T12:54:16;3.20;41.50
4840;DHT22;2434;48.486;7.964;2023-02-28T12:56:53;3.20;39.90
4840;DHT22;2434;48.486;7.964;2023-02-28T12:59:26;3.30;40.80
4840;DHT22;2434;48.486;7.964;2023-02-28T13:05:31;3.50;40.80
4840;DHT22;2434;48.486;7.964;2023-02-28T13:10:57;3.20;38.70
4840;DHT22;2434;48.486;7.964;2023-02-28T13:13:30;3.10;39.50
4840;DHT22;2434;48.486;7.964;2023-02-28T13:16:04;3.10;40.70
4840;DHT22;2434;48.486;7.964;2023-02-28T13:18:36;3.10;40.90
4840;DHT22;2434;48.486;7.964;2023-02-28T13:21:09;3.20;41.30
4840;DHT22;2434;48.486;7.964;2023-02-28T13:23:58;3.10;39.90
4840;DHT22;2434;48.486;7.964;2023-02-28T13:29:37;3.10;38.80
4840;DHT22;2434;48.486;7.964;2023-02-28T13:38:23;3.20;40.00
4840;DHT22;2434;48.486;7.964;2023-02-28T13:40:52;3.30;39.40
4840;DHT22;2434;48.486;7.964;2023-02-28T13:43:20;3.40;38.40
4840;DHT22;2434;48.486;7.964;2023-02-28T13:46:12;3.60;37.90
4840;DHT22;2434;48.486;7.964;2023-02-28T13:48:41;3.70;40.90
4840;DHT22;2434;48.486;7.964;2023-02-28T13:51:43;3.80;38.90
4840;DHT22;2434;48.486;7.964;2023-02-28T13:54:34;3.70;38.50
4840;DHT22;2434;48.486;7.964;2023-02-28T13:57:25;3.60;38.10
4840;DHT22;2434;48.486;7.964;2023-02-28T14:00:08;3.70;38.60
4840;DHT22;2434;48.486;7.964;2023-02-28T14:03:01;3.70;37.80
4840;DHT22;2434;48.486;7.964;2023-02-28T14:05:34;3.60;38.00
4840;DHT22;2434;48.486;7.964;2023-02-28T14:08:06;3.60;39.10
4840;DHT22;2434;48.486;7.964;2023-02-28T14:10:45;3.70;39.30
4840;DHT22;2434;48.486;7.964;2023-02-28T14:13:37;3.80;38.40
4840;DHT22;2434;48.486;7.964;2023-02-28T14:16:13;3.90;38.10
4840;DHT22;2434;48.486;7.964;2023-02-28T14:18:49;3.90;39.40
4840;DHT22;2434;48.486;7.964;2023-02-28T14:21:21;3.90;37.70
4840;DHT22;2434;48.486;7.964;2023-02-28T14:30:36;4.00;37.60
4840;DHT22;2434;48.486;7.964;2023-02-28T14:33:22;4.00;38.00
4840;DHT22;2434;48.486;7.964;2023-02-28T14:36:12;4.10;37.60
4840;DHT22;2434;48.486;7.964;2023-02-28T14:38:45;4.20;38.20
4840;DHT22;2434;48.486;7.964;2023-02-28T14:41:18;4.20;36.70
4840;DHT22;2434;48.486;7.964;2023-02-28T14:43:50;4.20;36.10
4840;DHT22;2434;48.486;7.964;2023-02-28T14:46:20;4.20;37.00
4840;DHT22;2434;48.486;7.964;2023-02-28T14:48:49;4.30;37.80
4840;DHT22;2434;48.486;7.964;2023-02-28T14:51:19;4.30;37.50
4840;DHT22;2434;48.486;7.964;2023-02-28T14:53:52;4.40;37.50
4840;DHT22;2434;48.486;7.964;2023-02-28T14:56:25;4.50;37.10
4840;DHT22;2434;48.486;7.964;2023-02-28T14:58:56;4.50;37.60
4840;DHT22;2434;48.486;7.964;2023-02-28T15:01:26;4.50;38.60
4840;DHT22;2434;48.486;7.964;2023-02-28T15:04:02;4.50;36.20
4840;DHT22;2434;48.486;7.964;2023-02-28T15:06:32;4.60;36.80
4840;DHT22;2434;48.486;7.964;2023-02-28T15:09:13;4.50;37.00
4840;DHT22;2434;48.486;7.964;2023-02-28T15:11:46;4.60;36.60
4840;DHT22;2434;48.486;7.964;2023-02-28T15:14:18;4.60;35.70
4840;DHT22;2434;48.486;7.964;2023-02-28T15:16:52;4.60;35.20
4840;DHT22;2434;48.486;7.964;2023-02-28T15:19:23;4.70;36.10
4840;DHT22;2434;48.486;7.964;2023-02-28T15:21:58;4.70;35.50
4840;DHT22;2434;48.486;7.964;2023-02-28T15:24:33;4.70;36.00
4840;DHT22;2434;48.486;7.964;2023-02-28T15:27:05;4.80;35.70
4840;DHT22;2434;48.486;7.964;2023-02-28T15:29:43;4.80;35.60
4840;DHT22;2434;48.486;7.964;2023-02-28T15:32:25;4.80;35.20
4840;DHT22;2434;48.486;7.964;2023-02-28T15:34:56;4.80;35.80
4840;DHT22;2434;48.486;7.964;2023-02-28T15:37:39;4.90;36.60
4840;DHT22;2434;48.486;7.964;2023-02-28T15:40:16;4.90;34.40
4840;DHT22;2434;48.486;7.964;2023-02-28T15:42:58;4.90;35.30
4840;DHT22;2434;48.486;7.964;2023-02-28T15:45:37;4.90;35.70
4840;DHT22;2434;48.486;7.964;2023-02-28T15:48:18;4.90;36.40
4840;DHT22;2434;48.486;7.964;2023-02-28T15:50:49;5.00;36.40
4840;DHT22;2434;48.486;7.964;2023-02-28T15:53:21;5.00;35.90
4840;DHT22;2434;48.486;7.964;2023-02-28T15:56:00;5.00;36.80
4840;DHT22;2434;48.486;7.964;2023-02-28T15:58:30;4.90;35.60
4840;DHT22;2434;48.486;7.964;2023-02-28T16:01:16;5.00;36.50
4840;DHT22;2434;48.486;7.964;2023-02-28T16:03:48;5.00;36.60
4840;DHT22;2434;48.486;7.964;2023-02-28T16:06:33;5.10;37.90
4840;DHT22;2434;48.486;7.964;2023-02-28T16:09:03;5.10;37.10
4840;DHT22;2434;48.486;7.964;2023-02-28T16:11:37;5.00;37.80
4840;DHT22;2434;48.486;7.964;2023-02-28T16:14:16;5.00;37.50
4840;DHT22;2434;48.486;7.964;2023-02-28T16:16:47;4.90;37.60
4840;DHT22;2434;48.486;7.964;2023-02-28T16:19:17;5.00;38.30
4840;DHT22;2434;48.486;7.964;2023-02-28T16:21:46;5.00;37.90
4840;DHT22;2434;48.486;7.964;2023-02-28T16:24:15;5.00;37.70
4840;DHT22;2434;48.486;7.964;2023-02-28T16:26:46;5.00;37.80
4840;DHT22;2434;48.486;7.964;2023-02-28T16:29:19;4.90;38.50
4840;DHT22;2434;48.486;7.964;2023-02-28T16:31:51;4.90;38.30
4840;DHT22;2434;48.486;7.964;2023-02-28T16:34:22;4.90;38.70
4840;DHT22;2434;48.486;7.964;2023-02-28T16:36:50;4.90;38.50
4840;DHT22;2434;48.486;7.964;2023-02-28T16:39:18;5.10;38.80
4840;DHT22;2434;48.486;7.964;2023-02-28T16:41:49;5.20;38.50
4840;DHT22;2434;48.486;7.964;2023-02-28T16:44:24;5.10;38.00
4840;DHT22;2434;48.486;7.964;2023-02-28T16:46:54;5.20;38.10
4840;DHT22;2434;48.486;7.964;2023-02-28T16:49:24;5.20;38.10
4840;DHT22;2434;48.486;7.964;2023-02-28T16:51:53;5.30;38.60
4840;DHT22;2434;48.486;7.964;2023-02-28T16:54:21;5.40;38.20
4840;DHT22;2434;48.486;7.964;2023-02-28T16:56:50;5.40;38.30
4840;DHT22;2434;48.486;7.964;2023-02-28T16:59:21;5.40;38.50
4840;DHT22;2434;48.486;7.964;2023-02-28T17:01:49;5.40;38.60
4840;DHT22;2434;48.486;7.964;2023-02-28T17:04:18;5.40;38.60
4840;DHT22;2434;48.486;7.964;2023-02-28T17:06:48;5.40;38.90
4840;DHT22;2434;48.486;7.964;2023-02-28T17:09:19;5.40;38.70
4840;DHT22;2434;48.486;7.964;2023-02-28T17:11:56;5.30;38.50
4840;DHT22;2434;48.486;7.964;2023-02-28T17:14:26;5.30;38.40
4840;DHT22;2434;48.486;7.964;2023-02-28T17:16:54;5.20;38.60
4840;DHT22;2434;48.486;7.964;2023-02-28T17:19:22;5.20;39.10
4840;DHT22;2434;48.486;7.964;2023-02-28T17:21:52;5.20;39.50
4840;DHT22;2434;48.486;7.964;2023-02-28T17:24:20;5.20;39.10